Terminal Aerodrome Forecast
Issued by NWS

Home | Current Version | Previous Version | Text Only | Print | Product List | Glossary Off
Versions: 1 2 3 4 5 6 7 8 9 10 11 12 13 14 15 16 17 18 19 20 21 22 23 24

000
FTUS43 KABR 221128
TAFMBG
TAF
KMBG 221128Z 2212/2312 12006KT P6SM SKC
     FM221800 14012G20KT P6SM FEW080 BKN120
     FM230000 13009KT P6SM FEW040 BKN060 OVC100=

USA.gov is the U.S. government's official web portal to all federal, state and local government web resources and services.